Time;durP1;ratioP1;P1;durP2;ratioP2;P2;SDS_P1;SDS_P2;PMS_P1;PMS_P2;Temp;Humidity;BMP_temperature;BMP_pressure;BME280_temperature;BME280_humidity;BME280_pressure;Samples;Min_cycle;Max_cycle;Signal;HPM_P1;HPM_P2
2021/05/18 00:04:53;;;;;;;3.87;2.83;;;10.60;73.20;11.50;100019.00;;;;5562608;23;20525;-78
2021/05/18 00:07:22;;;;;;;3.60;2.90;;;10.60;73.30;217.30;161561.00;;;;4940596;29;20465;-77
2021/05/18 00:12:44;;;;;;;3.90;2.90;;;10.50;73.80;11.40;99961.00;;;;4944023;29;20560;-78
2021/05/18 00:15:19;;;;;;;3.17;2.73;;;10.50;74.50;11.10;100024.00;;;;4940222;29;20887;-78
2021/05/18 00:17:48;;;;;;;4.50;2.93;;;10.50;74.80;217.30;161614.00;;;;4959567;28;20551;-78
2021/05/18 00:20:20;;;;;;;5.20;4.13;;;10.50;75.20;52.70;161632.00;;;;4939046;29;20488;-80
2021/05/18 00:22:48;;;;;;;3.70;3.40;;;10.50;75.50;217.30;161604.00;;;;4941820;29;20488;-80
2021/05/18 00:25:18;;;;;;;5.23;2.70;;;10.50;75.80;217.30;161652.00;;;;4943250;29;20520;-79
2021/05/18 00:27:50;;;;;;;3.87;2.60;;;10.60;75.80;11.60;100036.00;;;;4938103;29;20462;-79
2021/05/18 00:30:20;;;;;;;3.70;3.00;;;10.70;75.60;217.30;161632.00;;;;4957985;28;20871;-78
2021/05/18 00:32:48;;;;;;;4.40;3.47;;;10.70;75.20;217.30;161557.00;;;;4941970;29;20552;-78
2021/05/18 00:35:20;;;;;;;5.50;3.00;;;10.80;75.00;11.80;100027.00;;;;4954530;28;20484;-77
2021/05/18 00:37:49;;;;;;;4.53;3.57;;;10.80;74.40;52.70;161777.00;;;;4943871;29;20508;-79
2021/05/18 00:40:22;;;;;;;3.23;2.53;;;10.80;74.10;11.80;100048.00;;;;4939320;29;20623;-78
2021/05/18 00:42:55;;;;;;;3.20;2.50;;;10.80;73.90;217.30;161767.00;;;;4943521;29;20464;-78
2021/05/18 00:45:36;;;;;;;4.53;2.70;;;10.80;73.80;217.30;161751.00;;;;4956097;29;20484;-79
2021/05/18 00:48:07;;;;;;;4.40;3.10;;;10.80;73.90;11.70;68870.00;;;;4944739;29;20522;-78
2021/05/18 00:50:41;;;;;;;4.57;3.30;;;10.80;73.90;11.70;99969.00;;;;4936653;29;20539;-79
2021/05/18 00:53:12;;;;;;;3.53;2.90;;;10.70;73.80;217.30;161686.00;;;;4953031;28;20469;-78
2021/05/18 00:55:50;;;;;;;4.07;3.00;;;10.80;73.80;11.70;68867.00;;;;4953380;29;20472;-78
2021/05/18 00:58:30;;;;;;;6.40;3.53;;;10.80;73.60;11.60;100037.00;;;;4944872;29;20511;-78
2021/05/18 01:01:02;;;;;;;5.07;2.77;;;10.80;73.30;11.80;100044.00;;;;4965742;28;20528;-79
2021/05/18 01:03:33;;;;;;;3.30;3.00;;;10.80;72.80;11.80;99992.00;;;;4970668;28;20477;-79
2021/05/18 01:06:21;;;;;;;3.40;2.73;;;10.90;72.60;11.90;100046.00;;;;4979085;28;20497;-79
2021/05/18 01:08:53;;;;;;;4.17;3.70;;;10.90;72.60;11.90;68900.00;;;;4948492;29;20465;-80
2021/05/18 01:11:26;;;;;;;8.13;2.80;;;11.00;72.20;11.80;99934.00;;;;4946510;29;20594;-81
2021/05/18 01:14:02;;;;;;;3.27;2.97;;;10.90;71.70;11.90;100050.00;;;;4959556;28;20536;-81
2021/05/18 01:16:36;;;;;;;4.37;2.90;;;11.00;71.90;11.90;100031.00;;;;4943260;28;20966;-80
2021/05/18 01:19:06;;;;;;;5.37;3.30;;;10.90;71.80;217.30;161834.00;;;;4938725;29;21037;-78
2021/05/18 01:21:37;;;;;;;4.90;2.80;;;10.90;71.60;11.90;100058.00;;;;4939175;29;20460;-79
2021/05/18 01:24:07;;;;;;;3.47;3.17;;;10.90;71.60;217.30;161818.00;;;;4947588;29;20950;-78
2021/05/18 01:26:42;;;;;;;3.53;3.00;;;10.90;71.60;11.90;99944.00;;;;4941878;29;20453;-79
2021/05/18 01:29:16;;;;;;;3.33;2.90;;;10.90;71.70;11.90;68903.00;;;;4943922;29;20469;-80
2021/05/18 01:31:49;;;;;;;4.20;3.20;;;10.90;71.60;217.30;161686.00;;;;4959110;28;20459;-79
2021/05/18 01:34:19;;;;;;;3.77;3.13;;;10.90;71.60;11.50;68827.00;;;;4935941;29;20489;-79
2021/05/18 01:36:49;;;;;;;3.17;2.80;;;10.90;71.80;11.90;100060.00;;;;4943771;29;20461;-79
2021/05/18 01:39:44;;;;;;;4.73;2.77;;;11.00;72.00;11.90;68892.00;;;;4945592;28;20452;-79
2021/05/18 01:45:13;;;;;;;4.17;2.87;;;10.80;71.80;217.30;161761.00;;;;4942640;29;20481;-80
2021/05/18 01:47:46;;;;;;;2.70;2.50;;;10.80;71.80;217.30;161604.00;;;;4958398;29;20464;-79
2021/05/18 01:50:34;;;;;;;3.73;2.93;;;10.70;71.70;217.30;161545.00;;;;4955519;29;20463;-79
2021/05/18 01:53:19;;;;;;;2.93;2.63;;;10.60;72.00;11.60;100062.00;;;;4944310;29;20469;-79
2021/05/18 01:56:16;;;;;;;4.90;3.40;;;10.70;72.40;11.60;68712.00;;;;4951998;28;21301;-79
2021/05/18 01:58:47;;;;;;;4.63;2.80;;;10.70;72.50;11.70;99980.00;;;;4948614;29;20539;-80
2021/05/18 02:01:28;;;;;;;3.50;3.03;;;10.70;72.50;217.30;161745.00;;;;4943658;29;20461;-82
2021/05/18 02:04:07;;;;;;;4.73;3.00;;;10.70;72.50;11.70;100090.00;;;;4958189;28;20537;-79
2021/05/18 02:07:01;;;;;;;;;;;;;;;;;;;;;
2021/05/18 02:09:31;;;;;;;4.10;3.23;;;10.80;72.40;217.30;161638.00;;;;4943088;28;20453;-80
2021/05/18 02:12:08;;;;;;;3.93;3.30;;;10.70;73.20;11.50;100065.00;;;;4939303;29;20916;-81
2021/05/18 02:14:37;;;;;;;4.70;3.67;;;10.50;73.80;11.50;68812.00;;;;4942973;29;20475;-81
2021/05/18 02:17:31;;;;;;;5.40;3.53;;;10.60;74.60;217.30;161563.00;;;;4946899;29;20470;-82
2021/05/18 02:20:21;;;;;;;4.80;3.60;;;10.60;75.00;11.40;100067.00;;;;4954555;29;20896;-80
2021/05/18 02:26:12;;;;;;;4.13;3.70;;;10.50;75.50;11.30;100084.00;;;;4960918;29;20469;-79
2021/05/18 02:28:51;;;;;;;4.50;3.60;;;10.50;75.80;217.30;161380.00;;;;4962991;29;20445;-79
2021/05/18 02:31:32;;;;;;;3.90;3.50;;;10.30;75.80;217.30;161545.00;;;;4957452;28;20446;-81
2021/05/18 02:34:28;;;;;;;4.77;4.10;;;10.50;76.20;217.30;161321.00;;;;4961482;28;20469;-80
2021/05/18 02:37:00;;;;;;;5.23;3.83;;;10.50;76.60;11.10;100100.00;;;;4947184;29;20462;-82
2021/05/18 02:39:39;;;;;;;3.83;3.43;;;10.40;76.50;11.10;100026.00;;;;4939320;29;20491;-79
2021/05/18 02:42:18;;;;;;;6.30;4.10;;;10.40;76.70;217.30;161277.00;;;;4947874;28;20845;-80
2021/05/18 02:45:14;;;;;;;4.50;3.70;;;10.30;76.90;217.30;161450.00;;;;4936894;29;20500;-80
2021/05/18 02:50:44;;;;;;;6.80;4.47;;;10.20;77.20;10.90;100055.00;;;;4934831;29;20475;-80
2021/05/18 02:53:36;;;;;;;4.87;3.90;;;10.10;77.40;10.90;100038.00;;;;4931609;29;21334;-79
2021/05/18 02:56:10;;;;;;;4.40;3.47;;;10.10;77.80;10.80;68664.00;;;;4941309;29;20487;-81
2021/05/18 02:58:41;;;;;;;6.00;3.70;;;10.10;78.10;217.30;161289.00;;;;4939203;29;20503;-80
2021/05/18 03:01:13;;;;;;;5.10;4.00;;;10.00;78.10;10.40;100062.00;;;;4938209;29;20492;-78
2021/05/18 03:03:49;;;;;;;5.77;3.57;;;10.00;78.00;52.70;161071.00;;;;4943024;29;20480;-79
2021/05/18 03:06:27;;;;;;;3.90;3.50;;;10.00;78.00;52.70;161093.00;;;;4934267;29;20469;-80
2021/05/18 03:09:16;;;;;;;4.50;3.93;;;9.80;79.00;52.70;161295.00;;;;4957305;28;21011;-80
2021/05/18 03:11:58;;;;;;;4.03;3.70;;;9.90;79.20;10.70;100005.00;;;;4960569;28;20980;-80
2021/05/18 03:14:32;;;;;;;5.10;3.90;;;9.90;79.10;10.70;99984.00;;;;4953740;28;20491;-79
2021/05/18 03:17:05;;;;;;;4.30;3.57;;;9.90;79.10;10.60;100061.00;;;;4958420;28;20498;-80
2021/05/18 03:19:42;;;;;;;10.13;4.07;;;9.90;78.90;52.70;161269.00;;;;4964043;28;21107;-82
2021/05/18 03:22:13;;;;;;;4.73;3.67;;;9.90;78.90;10.60;100104.00;;;;4944810;29;20457;-82
2021/05/18 03:24:43;;;;;;;7.17;3.27;;;9.90;78.90;217.30;161007.00;;;;4954826;28;20487;-81
2021/05/18 03:27:14;;;;;;;4.93;3.47;;;9.90;78.90;217.30;161104.00;;;;4952890;28;20517;-80
2021/05/18 03:29:50;;;;;;;3.43;3.13;;;9.90;78.90;10.60;99992.00;;;;4940685;29;20466;-80
2021/05/18 03:35:14;;;;;;;2.97;2.77;;;9.90;78.90;10.10;68622.00;;;;4956621;28;20475;-81
2021/05/18 03:37:55;;;;;;;4.90;3.13;;;9.90;79.10;52.70;161065.00;;;;4943223;29;20457;-80
2021/05/18 03:40:29;;;;;;;3.77;2.90;;;9.90;79.20;10.80;100017.00;;;;4941536;29;20467;-79
2021/05/18 03:43:07;;;;;;;2.93;2.63;;;10.00;78.10;217.30;161311.00;;;;4945735;29;20493;-80
2021/05/18 03:45:43;;;;;;;6.53;3.30;;;10.00;78.00;10.90;100010.00;;;;4951258;29;20543;-79
2021/05/18 03:48:42;;;;;;;3.40;3.10;;;10.10;78.10;217.30;161247.00;;;;4945834;29;20452;-79
2021/05/18 03:54:19;;;;;;;4.30;2.90;;;10.10;77.50;10.90;100127.00;;;;4963928;28;20477;-80
2021/05/18 04:03:02;;;;;;;5.33;3.17;;;10.20;77.00;10.80;100023.00;;;;4964481;28;20464;-80
2021/05/18 04:17:08;;;;;;;5.60;2.77;;;10.60;75.00;217.30;161545.00;;;;4945767;29;20463;-79
2021/05/18 04:19:52;;;;;;;6.97;3.10;;;10.70;75.10;11.70;100155.00;;;;4947083;29;20476;-80
2021/05/18 04:22:44;;;;;;;3.63;2.60;;;10.70;73.80;11.80;99994.00;;;;4947231;29;20464;-80
2021/05/18 04:51:19;;;;;;;2.80;2.10;;;10.90;71.10;12.00;100184.00;;;;4924574;28;20470;-81
2021/05/18 04:54:28;;;;;;;2.60;2.17;;;10.80;70.40;12.00;100084.00;;;;4946548;29;20472;-80
2021/05/18 05:00:06;;;;;;;3.77;2.00;;;11.00;69.90;217.30;161773.00;;;;4957134;29;20617;-79
2021/05/18 05:03:31;;;;;;;2.23;2.03;;;11.10;70.10;12.20;100035.00;;;;4974532;28;20495;-81
2021/05/18 05:06:28;;;;;;;3.33;2.17;;;11.10;69.80;12.30;100193.00;;;;4956404;29;20527;-81
2021/05/18 05:09:21;;;;;;;2.60;2.20;;;11.20;69.10;12.30;100199.00;;;;4959644;29;20474;-80
2021/05/18 05:14:38;;;;;;;4.03;2.30;;;11.20;68.00;12.40;100078.00;;;;4938126;29;20611;-80
2021/05/18 05:17:07;;;;;;;4.53;2.90;;;11.30;67.70;12.40;100121.00;;;;4964054;28;20452;-79
2021/05/18 05:19:36;;;;;;;2.93;2.63;;;11.30;66.80;217.30;162009.00;;;;4951948;29;21100;-81
2021/05/18 05:22:06;;;;;;;3.50;2.73;;;11.40;66.80;12.40;100186.00;;;;4952135;29;20571;-80
2021/05/18 05:24:37;;;;;;;3.17;2.63;;;11.40;66.90;52.70;162207.00;;;;4945847;29;20517;-80
2021/05/18 05:27:05;;;;;;;3.80;2.20;;;11.60;66.20;12.90;100195.00;;;;4959821;28;20459;-80
2021/05/18 05:29:42;;;;;;;3.40;2.20;;;11.70;65.10;13.00;100188.00;;;;4949540;29;20551;-80
2021/05/18 05:32:11;;;;;;;2.70;2.20;;;11.90;64.70;13.10;100117.00;;;;4957870;29;20532;-80
2021/05/18 05:34:39;;;;;;;3.40;2.03;;;11.90;64.10;13.30;100150.00;;;;4978035;28;20493;-81
2021/05/18 05:37:08;;;;;;;2.93;2.30;;;12.10;63.00;217.30;162443.00;;;;4951273;29;20448;-81
2021/05/18 05:39:37;;;;;;;3.63;2.23;;;12.30;61.70;13.50;100150.00;;;;4957328;29;20484;-78
2021/05/18 05:42:05;;;;;;;4.63;2.43;;;12.30;61.40;13.70;100192.00;;;;4947292;29;20520;-79
2021/05/18 05:44:33;;;;;;;3.00;2.60;;;12.40;60.60;13.60;69239.00;;;;4944180;29;20506;-80
2021/05/18 05:47:01;;;;;;;5.00;2.40;;;12.30;58.90;13.70;69280.00;;;;4943811;29;20464;-80
2021/05/18 05:49:29;;;;;;;5.73;3.20;;;12.50;60.50;13.60;100202.00;;;;4943680;29;20489;-79
2021/05/18 05:51:57;;;;;;;4.00;2.90;;;12.30;60.00;13.50;100186.00;;;;4942850;28;20632;-79
2021/05/18 05:54:25;;;;;;;4.40;3.13;;;12.40;59.80;13.30;100152.00;;;;4956336;28;20748;-79
2021/05/18 05:56:56;;;;;;;3.17;2.80;;;12.10;60.00;13.20;100103.00;;;;4943024;28;20564;-79
2021/05/18 05:59:24;;;;;;;4.00;3.60;;;12.10;61.40;13.10;100205.00;;;;4945018;29;20523;-80
2021/05/18 06:01:52;;;;;;;5.97;3.40;;;12.00;61.50;12.80;100122.00;;;;4936309;29;20504;-81
2021/05/18 06:04:20;;;;;;;6.10;3.53;;;11.90;61.40;12.90;100210.00;;;;4947427;29;20508;-79
2021/05/18 06:06:48;;;;;;;12.03;3.50;;;12.00;62.10;13.10;100176.00;;;;4945534;29;20574;-80
2021/05/18 06:09:16;;;;;;;9.33;3.60;;;12.10;61.70;217.30;162594.00;;;;4953646;29;20468;-81
2021/05/18 06:11:52;;;;;;;5.30;4.10;;;12.60;60.50;14.20;69399.00;;;;4948761;29;20987;-80
2021/05/18 06:14:34;;;;;;;5.67;3.60;;;12.90;57.30;14.10;100209.00;;;;4950173;29;20484;-81
2021/05/18 06:17:26;;;;;;;4.80;3.10;;;12.90;56.70;14.30;100130.00;;;;4955359;28;20461;-81
2021/05/18 06:34:19;;;;;;;4.23;3.50;;;13.50;50.30;14.30;69455.00;;;;4963801;28;20453;-83
2021/05/18 06:42:58;;;;;;;3.27;2.53;;;14.00;51.40;15.70;100231.00;;;;4918305;29;20454;-81
2021/05/18 06:45:53;;;;;;;5.70;2.50;;;14.30;47.40;15.80;100197.00;;;;4937178;29;20489;-80
2021/05/18 06:48:27;;;;;;;3.00;2.50;;;14.50;45.90;15.80;100172.00;;;;4946954;29;20488;-81
2021/05/18 06:50:55;;;;;;;5.63;2.80;;;14.50;43.90;15.90;100172.00;;;;4961332;28;20454;-81
2021/05/18 06:53:24;;;;;;;4.67;2.83;;;14.60;42.90;15.90;69773.00;;;;4945129;29;20453;-80
2021/05/18 06:55:53;;;;;;;2.50;2.30;;;14.50;41.10;15.30;100170.00;;;;4947234;29;20539;-80
2021/05/18 07:00:06;;;;;;;6.10;3.23;;;14.30;43.10;15.70;100173.00;;;;4947146;29;21004;-81
2021/05/18 07:01:34;;;;;;;3.70;2.97;;;14.30;43.20;15.80;100217.00;;;;4956760;29;20477;-82
2021/05/18 07:04:07;;;;;;;3.77;2.70;;;14.30;41.50;15.80;69785.00;;;;4956559;29;20485;-82
2021/05/18 07:06:43;;;;;;;5.50;3.10;;;14.40;41.40;15.70;69695.00;;;;4955132;29;20447;-83
2021/05/18 07:09:11;;;;;;;7.35;3.28;;;14.30;40.30;52.70;163306.00;;;;4951902;29;20450;-83
2021/05/18 07:11:39;;;;;;;5.88;3.05;;;14.30;42.10;15.70;69691.00;;;;4957165;29;20438;-84
2021/05/18 07:14:07;;;;;;;4.97;3.10;;;14.40;39.60;15.60;100178.00;;;;4948864;29;20447;-81
2021/05/18 07:16:36;;;;;;;5.23;2.30;;;14.40;38.40;217.30;163328.00;;;;4952465;29;20269;-80
2021/05/18 07:19:05;;;;;;;5.50;2.90;;;14.30;40.20;15.60;100222.00;;;;4948515;29;20464;-80
2021/05/18 07:21:36;;;;;;;3.30;2.40;;;14.40;39.50;16.10;100195.00;;;;4944098;29;20431;-83
2021/05/18 07:24:10;;;;;;;6.22;2.70;;;14.90;35.30;16.10;100235.00;;;;4938446;29;20435;-79
2021/05/18 07:26:38;;;;;;;4.20;2.45;;;15.10;33.50;16.60;100222.00;;;;4949124;28;20434;-80
2021/05/18 07:29:06;;;;;;;3.17;2.60;;;15.40;31.60;16.50;100197.00;;;;4935640;29;20473;-80
2021/05/18 07:31:34;;;;;;;3.90;2.70;;;15.40;30.10;16.70;100243.00;;;;4935053;29;20445;-80
2021/05/18 07:34:04;;;;;;;5.90;3.10;;;15.60;30.20;16.80;100191.00;;;;4932580;29;20439;-82
2021/05/18 07:36:32;;;;;;;3.40;2.43;;;15.60;29.70;16.70;100240.00;;;;4944131;29;20454;-83
2021/05/18 07:39:00;;;;;;;4.90;2.65;;;15.50;28.30;17.00;100195.00;;;;4965549;28;20429;-81
2021/05/18 07:41:28;;;;;;;2.60;2.30;;;15.80;27.40;17.20;100155.00;;;;4947944;29;20198;-82
2021/05/18 07:43:57;;;;;;;3.53;2.07;;;16.10;24.80;17.60;100245.00;;;;4953393;28;20503;-82
2021/05/18 07:46:26;;;;;;;3.00;1.80;;;16.20;23.70;17.50;100217.00;;;;4960285;28;20469;-82
2021/05/18 07:49:14;;;;;;;2.03;1.40;;;16.20;22.80;17.10;100228.00;;;;4949032;29;20492;-81
2021/05/18 08:00:16;;;;;;;2.60;1.73;;;16.60;21.70;18.00;100217.00;;;;4941157;29;20539;-82
2021/05/18 08:05:31;;;;;;;3.67;2.07;;;16.30;20.90;17.50;100210.00;;;;4909214;29;20507;-82
2021/05/18 08:08:01;;;;;;;4.53;1.80;;;16.00;21.00;16.80;100224.00;;;;4951188;28;20505;-82
2021/05/18 08:10:42;;;;;;;2.23;1.60;;;15.40;22.50;52.70;163592.00;;;;4953613;28;21032;-81
2021/05/18 08:13:11;;;;;;;4.00;3.13;;;14.80;28.40;15.80;100190.00;;;;4957527;28;20516;-80
2021/05/18 08:15:56;;;;;;;4.57;2.58;;;14.50;36.80;15.80;69756.00;;;;4955139;28;20435;-82
2021/05/18 08:18:38;;;;;;;5.93;3.00;;;14.60;35.60;217.30;163661.00;;;;4942042;29;20561;-82
2021/05/18 10:35:45;;;;;;;2.07;0.90;;;15.30;6.60;16.10;100246.00;;;;4947010;29;20525;-80
2021/05/18 10:38:20;;;;;;;1.70;1.10;;;14.80;11.30;14.80;100243.00;;;;4947144;29;20937;-84
2021/05/18 10:40:51;;;;;;;3.10;1.03;;;13.80;24.10;13.80;69267.00;;;;4957530;28;20473;-85
2021/05/18 10:43:29;;;;;;;3.40;1.27;;;12.90;39.40;13.60;100202.00;;;;4947577;28;20468;-84
2021/05/18 10:46:25;;;;;;;3.20;1.13;;;12.50;45.80;13.90;100216.00;;;;4937171;29;20504;-84
2021/05/18 10:49:06;;;;;;;1.60;1.07;;;12.60;50.70;217.30;162872.00;;;;4954241;28;20843;-83
2021/05/18 10:51:59;;;;;;;1.60;1.20;;;13.00;50.90;15.00;100210.00;;;;4952387;28;20463;-85
2021/05/18 10:54:36;;;;;;;2.33;1.10;;;13.60;44.40;15.20;100219.00;;;;4943803;28;20914;-84
2021/05/18 10:57:30;;;;;;;3.07;1.60;;;14.00;44.30;15.90;100189.00;;;;4935422;29;20532;-83
2021/05/18 11:00:00;;;;;;;2.00;1.20;;;14.90;38.80;16.40;100206.00;;;;4950967;29;20965;-83
2021/05/18 11:02:34;;;;;;;3.10;1.40;;;15.70;33.20;16.80;100201.00;;;;4937565;29;20479;-85
2021/05/18 11:05:07;;;;;;;3.97;1.43;;;16.20;30.50;17.20;100166.00;;;;4940669;28;20477;-87
2021/05/18 11:07:37;;;;;;;2.23;1.07;;;16.60;28.90;17.30;100193.00;;;;4946086;29;20501;-86
2021/05/18 11:10:10;;;;;;;2.20;1.20;;;16.90;19.10;17.30;100185.00;;;;4957403;29;20965;-86
2021/05/18 11:12:39;;;;;;;2.03;1.27;;;17.00;17.10;17.40;100157.00;;;;4955105;29;20479;-86
2021/05/18 11:15:13;;;;;;;3.57;1.30;;;17.20;14.40;17.40;100165.00;;;;4963005;29;20470;-87
2021/05/18 11:17:42;;;;;;;2.17;1.50;;;17.20;15.10;17.40;100190.00;;;;4947733;29;20543;-86
2021/05/18 11:20:23;;;;;;;3.43;1.30;;;17.10;16.30;17.60;100160.00;;;;4937846;29;20911;-85
2021/05/18 11:23:22;;;;;;;1.43;1.10;;;17.50;9.40;17.80;100190.00;;;;4952595;28;20875;-86
2021/05/18 11:25:54;;;;;;;5.23;2.70;;;17.60;9.40;17.80;100106.00;;;;4946380;29;20503;-86
2021/05/18 11:28:25;;;;;;;3.90;1.60;;;17.60;8.70;17.80;100156.00;;;;4944652;29;20490;-82
2021/05/18 11:30:55;;;;;;;1.90;1.30;;;17.70;9.40;18.00;100184.00;;;;4943120;29;20465;-85
2021/05/18 11:33:30;;;;;;;3.87;1.60;;;17.90;5.20;18.50;100175.00;;;;4943456;29;20457;-85
2021/05/18 11:36:10;;;;;;;2.90;1.20;;;18.50;6.90;19.00;100178.00;;;;4942534;29;20477;-84
2021/05/18 11:38:40;;;;;;;2.10;1.07;;;18.70;1.90;19.80;100148.00;;;;4958538;28;20568;-84
2021/05/18 11:41:08;;;;;;;2.17;1.03;;;19.40;1.00;19.10;100188.00;;;;4935833;29;20889;-83
2021/05/18 11:43:37;;;;;;;3.83;0.80;;;18.60;1.00;18.20;100188.00;;;;4952660;29;20453;-84
2021/05/18 11:46:14;;;;;;;2.77;1.37;;;17.70;4.30;18.00;100199.00;;;;4955341;29;20469;-84
2021/05/18 11:48:53;;;;;;;2.03;0.90;;;17.40;8.70;18.10;100199.00;;;;4963936;28;21016;-84
2021/05/18 11:51:22;;;;;;;2.17;0.80;;;17.30;3.90;18.30;100130.00;;;;4964772;28;20475;-83
2021/05/18 11:53:53;;;;;;;1.63;0.90;;;17.40;3.30;18.40;100179.00;;;;4962320;29;20440;-83
2021/05/18 11:56:27;;;;;;;1.53;0.80;;;17.40;1.00;18.60;100193.00;;;;4950210;29;20555;-82
2021/05/18 11:59:03;;;;;;;3.50;1.10;;;17.60;1.00;18.80;100186.00;;;;4956049;29;20441;-85
2021/05/18 12:01:33;;;;;;;2.03;0.83;;;17.80;1.00;19.50;100130.00;;;;4978618;28;20507;-85
2021/05/18 12:04:12;;;;;;;1.10;0.70;;;18.60;1.00;19.80;100169.00;;;;4966835;28;20471;-84
2021/05/18 12:06:54;;;;;;;1.00;0.60;;;19.10;1.00;19.40;100184.00;;;;4957418;29;20776;-84
2021/05/18 12:09:23;;;;;;;3.27;0.90;;;18.70;1.00;19.30;100167.00;;;;4955379;29;20453;-83
2021/05/18 12:11:55;;;;;;;1.70;0.90;;;18.40;1.00;19.60;100193.00;;;;4949606;29;20457;-84
2021/05/18 12:14:28;;;;;;;2.57;0.90;;;18.40;1.00;19.60;100104.00;;;;4947989;29;20588;-83
2021/05/18 12:16:57;;;;;;;1.83;0.70;;;18.40;1.00;19.60;100062.00;;;;4974374;28;20452;-84
2021/05/18 12:19:26;;;;;;;1.00;0.70;;;18.50;1.00;19.60;100144.00;;;;4962051;29;20456;-85
2021/05/18 12:21:56;;;;;;;1.77;0.90;;;18.60;1.00;19.80;100179.00;;;;4960820;29;20472;-85
2021/05/18 12:24:26;;;;;;;1.30;0.80;;;18.70;1.00;19.60;100129.00;;;;4959987;29;20488;-86
2021/05/18 12:26:58;;;;;;;2.90;0.90;;;18.40;1.00;19.60;100178.00;;;;4960757;28;20966;-85
2021/05/18 12:29:34;;;;;;;2.00;0.80;;;18.20;1.00;19.80;100086.00;;;;4947383;28;20457;-85
2021/05/18 12:32:18;;;;;;;2.70;0.90;;;18.40;1.00;19.70;100095.00;;;;4947362;29;20464;-85
2021/05/18 12:34:48;;;;;;;2.03;0.70;;;18.20;1.00;19.90;100172.00;;;;4940492;29;20492;-85
2021/05/18 12:37:17;;;;;;;1.97;0.80;;;18.30;1.00;20.30;100158.00;;;;4965178;28;20455;-88
2021/05/18 12:39:55;;;;;;;1.70;0.80;;;18.80;1.00;20.00;100113.00;;;;4950774;29;20467;-85
2021/05/18 12:42:29;;;;;;;1.33;0.83;;;18.70;1.00;19.90;100129.00;;;;4961954;28;20845;-86
2021/05/18 12:45:09;;;;;;;1.13;0.83;;;18.50;1.00;19.90;100156.00;;;;4957100;29;20472;-86
2021/05/18 12:48:12;;;;;;;2.10;0.80;;;18.30;1.00;20.10;100114.00;;;;4960344;29;20441;-87
2021/05/18 12:50:57;;;;;;;1.17;0.63;;;18.60;1.00;19.70;100068.00;;;;4965624;28;20488;-86
2021/05/18 12:53:29;;;;;;;1.70;1.47;;;18.30;1.00;19.80;100084.00;;;;4944209;29;20468;-84
2021/05/18 12:56:02;;;;;;;1.70;0.70;;;18.60;1.00;19.80;100157.00;;;;4966206;28;20471;-83
2021/05/18 12:58:33;;;;;;;0.90;0.60;;;18.60;1.00;20.10;100183.00;;;;4968237;28;20464;-83
2021/05/18 13:01:11;;;;;;;1.00;0.53;;;18.70;1.00;19.90;100107.00;;;;4975165;28;20512;-84
2021/05/18 13:03:42;;;;;;;1.20;1.00;;;18.60;1.00;20.10;100203.00;;;;4970917;28;20485;-83
2021/05/18 13:06:12;;;;;;;3.10;0.80;;;18.70;1.00;19.80;100162.00;;;;4968686;28;20496;-84
2021/05/18 13:08:42;;;;;;;2.10;0.50;;;18.40;1.00;19.30;100177.00;;;;4963092;28;20638;-83
2021/05/18 13:11:18;;;;;;;1.90;0.60;;;18.00;1.00;19.60;100165.00;;;;4977058;28;20484;-87
2021/05/18 13:13:54;;;;;;;1.20;0.70;;;17.90;1.00;19.50;100196.00;;;;4963799;28;20532;-85
2021/05/18 13:16:26;;;;;;;1.30;0.60;;;17.80;1.00;19.80;100166.00;;;;4963869;29;20548;-86
2021/05/18 13:18:59;;;;;;;1.87;0.53;;;18.10;1.00;20.10;100060.00;;;;4958259;29;20475;-87
2021/05/18 13:21:33;;;;;;;1.00;0.60;;;18.70;1.00;19.90;100191.00;;;;4952125;29;20475;-84
2021/05/18 13:24:27;;;;;;;1.00;0.60;;;18.90;1.00;19.50;100144.00;;;;4970202;28;20576;-85
2021/05/18 13:26:55;;;;;;;1.27;0.60;;;18.60;1.00;19.10;100190.00;;;;4958396;29;20461;-86
2021/05/18 13:29:23;;;;;;;1.00;0.70;;;18.50;1.00;19.10;100179.00;;;;4955440;28;20458;-85
2021/05/18 13:31:55;;;;;;;1.57;0.60;;;18.70;1.00;19.20;100160.00;;;;4959273;29;20464;-86
2021/05/18 13:34:42;;;;;;;1.57;0.70;;;18.80;1.00;19.50;100124.00;;;;4974731;28;20487;-85
2021/05/18 13:37:10;;;;;;;1.93;0.70;;;19.10;1.00;20.10;100087.00;;;;4958125;29;20453;-85
2021/05/18 13:39:39;;;;;;;2.13;0.60;;;19.80;1.00;21.40;100177.00;;;;4971092;28;20621;-85
2021/05/18 13:42:08;;;;;;;4.77;0.80;;;20.70;1.00;22.60;100153.00;;;;4954587;29;20553;-86
2021/05/18 13:44:39;;;;;;;1.30;0.70;;;21.20;1.00;21.90;100149.00;;;;4953784;29;20473;-89
2021/05/18 13:47:09;;;;;;;3.80;0.70;;;20.50;1.00;21.60;100119.00;;;;4949410;29;20541;-86
2021/05/18 13:49:40;;;;;;;1.93;0.90;;;20.10;1.00;23.40;100141.00;;;;4956121;29;20456;-87
2021/05/18 13:52:22;;;;;;;1.47;1.10;;;20.70;1.00;24.20;100140.00;;;;4953205;29;20604;-87
2021/05/18 13:54:52;;;;;;;2.43;0.87;;;21.40;1.00;25.30;100120.00;;;;4953192;29;20493;-84
2021/05/18 13:57:21;;;;;;;1.37;0.60;;;21.90;1.00;26.20;100142.00;;;;4964543;28;20476;-88
2021/05/18 13:59:50;;;;;;;0.90;0.50;;;22.50;1.00;24.60;100147.00;;;;4966849;28;20863;-86
2021/05/18 14:02:20;;;;;;;1.20;0.70;;;21.80;1.00;24.80;100163.00;;;;4957880;29;20481;-86
2021/05/18 14:04:48;;;;;;;1.30;0.70;;;21.60;1.00;23.30;100205.00;;;;4953511;29;20480;-88
2021/05/18 14:08:19;;;;;;;1.10;0.70;;;20.70;1.00;22.10;100204.00;;;;4953237;29;20497;-86
2021/05/18 14:10:48;;;;;;;3.13;1.13;;;19.80;1.00;20.20;100183.00;;;;4941998;29;20471;-86
2021/05/18 14:13:16;;;;;;;1.60;0.60;;;18.60;1.00;19.20;100208.00;;;;4953780;29;20461;-85
2021/05/18 14:15:49;;;;;;;1.87;0.90;;;17.70;1.00;217.30;164751.00;;;;4958851;29;20668;-86
2021/05/18 14:18:18;;;;;;;2.53;1.07;;;17.00;1.00;18.40;100209.00;;;;4954820;29;20581;-86
2021/05/18 14:20:47;;;;;;;1.63;0.80;;;16.70;1.00;18.40;70367.00;;;;4953324;29;20462;-86
2021/05/18 14:23:20;;;;;;;2.90;1.10;;;16.60;1.00;18.50;100163.00;;;;4966868;28;20468;-85
2021/05/18 14:25:48;;;;;;;1.83;0.70;;;16.80;1.00;19.20;100116.00;;;;4962779;29;20556;-85
2021/05/18 14:28:35;;;;;;;3.43;0.90;;;17.30;1.00;19.70;100134.00;;;;4980566;28;20543;-85
2021/05/18 14:31:06;;;;;;;2.17;0.80;;;17.60;1.00;19.80;100228.00;;;;4964071;28;20443;-86
2021/05/18 14:33:36;;;;;;;2.37;0.70;;;17.90;1.00;19.50;100073.00;;;;4963648;28;20537;-84
2021/05/18 14:36:09;;;;;;;1.40;0.63;;;17.70;1.00;19.40;70586.00;;;;4965908;28;20559;-85
2021/05/18 14:38:52;;;;;;;1.90;1.10;;;17.60;1.00;217.30;164995.00;;;;4960661;28;20437;-84
2021/05/18 14:44:14;;;;;;;1.17;0.60;;;17.20;1.00;18.60;100165.00;;;;4963321;29;20444;-84
2021/05/18 14:46:49;;;;;;;1.50;0.87;;;16.90;1.00;18.60;100211.00;;;;4956032;28;20483;-83
2021/05/18 14:55:02;;;;;;;0.90;0.67;;;16.60;1.00;217.30;164385.00;;;;4976794;28;20488;-83
2021/05/18 14:57:30;;;;;;;1.33;0.90;;;16.10;1.00;17.10;70083.00;;;;4955917;29;20445;-81
2021/05/18 14:59:58;;;;;;;1.20;0.60;;;15.70;4.10;16.80;100177.00;;;;4958732;28;20469;-85
2021/05/18 15:02:27;;;;;;;1.20;0.80;;;15.50;7.30;16.50;69894.00;;;;4969093;28;20772;-82
2021/05/18 15:04:56;;;;;;;1.40;0.80;;;15.20;9.30;16.40;100198.00;;;;4956193;28;20480;-84
2021/05/18 15:07:24;;;;;;;1.10;0.80;;;15.20;11.60;16.20;100210.00;;;;4959434;29;20465;-84
2021/05/18 15:09:53;;;;;;;1.30;0.80;;;15.10;10.00;217.30;163592.00;;;;4968937;28;20639;-86
2021/05/18 15:12:22;;;;;;;1.67;0.80;;;15.00;8.90;16.30;100203.00;;;;4959693;29;20469;-83
2021/05/18 15:14:51;;;;;;;1.93;0.77;;;15.00;8.80;16.50;69851.00;;;;4954594;29;20486;-85
2021/05/18 15:17:19;;;;;;;2.63;0.90;;;15.10;8.00;17.40;100175.00;;;;4958709;29;20449;-82
2021/05/18 15:19:51;;;;;;;1.87;1.10;;;15.70;7.50;20.20;100208.00;;;;4957504;29;20457;-84
2021/05/18 15:22:20;;;;;;;1.73;0.67;;;17.40;1.00;22.20;100211.00;;;;4953392;29;20464;-84
2021/05/18 15:24:48;;;;;;;2.70;1.10;;;19.20;1.00;23.40;100183.00;;;;4941629;29;20512;-83
2021/05/18 15:27:16;;;;;;;1.00;0.60;;;20.20;1.00;23.80;100217.00;;;;4965214;28;20441;-83
2021/05/18 15:29:45;;;;;;;1.83;0.60;;;20.60;1.00;24.00;100197.00;;;;4959234;28;20473;-82